KSLK/SLK METAR and TAF weather

Enter ICAO airport designator
Station Type Date Time Source
KSLK METAR 2022/12/10 00:51 UTC NOAA

KSLK 100051Z AUTO 07006KT 10SM CLR M07/M11 A3038 RMK AO2 SLP314 T10671111


Station Type Date Time Source
KSLK Decoded METAR 2022/12/10 00:51 UTC NOAA

ADIRONDACK REGIONAL AIRPORT, NY, United States (KSLK) 44-24N 074-12W 498M
Dec 09, 2022 - 07:51 PM EST / 2022.12.10 0051 UTC
Wind: from the ENE (070 degrees) at 7 MPH (6 KT):0
Visibility: 10 mile(s):0
Sky conditions: clear
Temperature: 19.9 F (-6.7 C)
Windchill: 10 F (-12 C):1
Dew Point: 12.0 F (-11.1 C)
Relative Humidity: 70%
Pressure (altimeter): 30.38 in. Hg (1028 hPa)
ob: KSLK 100051Z AUTO 07006KT 10SM CLR M07/M11 A3038 RMK AO2 SLP314 T10671111
cycle: 1

Station Type Date Time Source
KSLK TAF 2022/12/09 18:33 UTC NOAA

TAF KSLK 091731Z 0918/1018 04008KT P6SM SKC

Example: see airport list